sensor_id;sensor_type;location;lat;lon;timestamp;temperature;humidity
10312;DHT22;5201;48.776;9.128;2022-08-01T00:00:22;23.50;80.70
10312;DHT22;5201;48.776;9.128;2022-08-01T00:02:47;23.50;81.40
10312;DHT22;5201;48.776;9.128;2022-08-01T00:05:13;23.50;81.20
10312;DHT22;5201;48.776;9.128;2022-08-01T00:07:39;23.70;81.50
10312;DHT22;5201;48.776;9.128;2022-08-01T00:10:07;23.40;81.90
10312;DHT22;5201;48.776;9.128;2022-08-01T00:12:33;23.40;83.00
10312;DHT22;5201;48.776;9.128;2022-08-01T00:14:59;23.40;82.50
10312;DHT22;5201;48.776;9.128;2022-08-01T00:17:24;23.40;82.20
10312;DHT22;5201;48.776;9.128;2022-08-01T00:19:50;23.40;82.30
10312;DHT22;5201;48.776;9.128;2022-08-01T00:22:16;23.50;82.40
10312;DHT22;5201;48.776;9.128;2022-08-01T00:24:42;23.40;82.10
10312;DHT22;5201;48.776;9.128;2022-08-01T00:27:07;23.40;82.20
10312;DHT22;5201;48.776;9.128;2022-08-01T00:29:33;23.30;83.20
10312;DHT22;5201;48.776;9.128;2022-08-01T00:31:58;23.30;83.70
10312;DHT22;5201;48.776;9.128;2022-08-01T00:34:24;23.30;83.10
10312;DHT22;5201;48.776;9.128;2022-08-01T00:36:49;23.30;83.30
10312;DHT22;5201;48.776;9.128;2022-08-01T00:39:15;23.30;83.70
10312;DHT22;5201;48.776;9.128;2022-08-01T00:41:41;23.30;83.60
10312;DHT22;5201;48.776;9.128;2022-08-01T00:44:06;23.30;83.60
10312;DHT22;5201;48.776;9.128;2022-08-01T00:46:32;23.20;84.20
10312;DHT22;5201;48.776;9.128;2022-08-01T00:48:59;23.20;84.50
10312;DHT22;5201;48.776;9.128;2022-08-01T00:51:25;23.10;84.80
10312;DHT22;5201;48.776;9.128;2022-08-01T00:53:51;23.10;84.30
10312;DHT22;5201;48.776;9.128;2022-08-01T00:56:17;23.00;84.50
10312;DHT22;5201;48.776;9.128;2022-08-01T00:58:43;22.90;84.70
10312;DHT22;5201;48.776;9.128;2022-08-01T01:01:09;23.00;86.00
10312;DHT22;5201;48.776;9.128;2022-08-01T01:03:35;23.00;85.10
10312;DHT22;5201;48.776;9.128;2022-08-01T01:06:21;22.90;85.30
10312;DHT22;5201;48.776;9.128;2022-08-01T01:09:24;22.80;86.60
10312;DHT22;5201;48.776;9.128;2022-08-01T01:15:06;22.70;86.60
10312;DHT22;5201;48.776;9.128;2022-08-01T01:17:51;22.60;87.00
10312;DHT22;5201;48.776;9.128;2022-08-01T01:20:21;22.60;88.00
10312;DHT22;5201;48.776;9.128;2022-08-01T01:25:32;22.40;87.40
10312;DHT22;5201;48.776;9.128;2022-08-01T01:30:53;22.50;88.00
10312;DHT22;5201;48.776;9.128;2022-08-01T01:33:21;22.50;88.00
10312;DHT22;5201;48.776;9.128;2022-08-01T01:35:52;22.40;88.10
10312;DHT22;5201;48.776;9.128;2022-08-01T01:38:21;22.40;89.40
10312;DHT22;5201;48.776;9.128;2022-08-01T01:40:50;22.40;88.20
10312;DHT22;5201;48.776;9.128;2022-08-01T01:43:18;22.40;88.80
10312;DHT22;5201;48.776;9.128;2022-08-01T01:45:47;22.30;89.00
10312;DHT22;5201;48.776;9.128;2022-08-01T01:48:18;22.20;88.80
10312;DHT22;5201;48.776;9.128;2022-08-01T01:50:46;22.20;89.50
10312;DHT22;5201;48.776;9.128;2022-08-01T01:53:15;22.20;89.40
10312;DHT22;5201;48.776;9.128;2022-08-01T01:55:43;22.20;89.70
10312;DHT22;5201;48.776;9.128;2022-08-01T01:58:13;22.20;89.30
10312;DHT22;5201;48.776;9.128;2022-08-01T02:00:40;22.20;89.50
10312;DHT22;5201;48.776;9.128;2022-08-01T02:03:08;22.20;89.80
10312;DHT22;5201;48.776;9.128;2022-08-01T02:05:35;22.20;89.90
10312;DHT22;5201;48.776;9.128;2022-08-01T02:08:03;22.20;90.80
10312;DHT22;5201;48.776;9.128;2022-08-01T02:10:31;22.10;90.80
10312;DHT22;5201;48.776;9.128;2022-08-01T02:12:58;22.00;90.60
10312;DHT22;5201;48.776;9.128;2022-08-01T02:15:27;22.00;90.90
10312;DHT22;5201;48.776;9.128;2022-08-01T02:17:54;22.10;90.80
10312;DHT22;5201;48.776;9.128;2022-08-01T02:20:21;22.00;90.70
10312;DHT22;5201;48.776;9.128;2022-08-01T02:22:50;22.20;90.70
10312;DHT22;5201;48.776;9.128;2022-08-01T02:25:25;22.10;90.70
10312;DHT22;5201;48.776;9.128;2022-08-01T02:30:32;22.20;91.00
10312;DHT22;5201;48.776;9.128;2022-08-01T02:33:12;22.10;90.80
10312;DHT22;5201;48.776;9.128;2022-08-01T02:35:41;22.00;91.20
10312;DHT22;5201;48.776;9.128;2022-08-01T02:38:09;22.00;91.10
10312;DHT22;5201;48.776;9.128;2022-08-01T02:40:40;21.90;91.80
10312;DHT22;5201;48.776;9.128;2022-08-01T02:43:08;21.90;91.60
10312;DHT22;5201;48.776;9.128;2022-08-01T02:45:36;21.90;91.60
10312;DHT22;5201;48.776;9.128;2022-08-01T02:48:11;21.90;91.90
10312;DHT22;5201;48.776;9.128;2022-08-01T02:50:39;21.90;91.50
10312;DHT22;5201;48.776;9.128;2022-08-01T02:53:08;21.90;91.70
10312;DHT22;5201;48.776;9.128;2022-08-01T02:55:38;21.80;91.80
10312;DHT22;5201;48.776;9.128;2022-08-01T02:58:04;21.80;91.70
10312;DHT22;5201;48.776;9.128;2022-08-01T03:00:32;21.70;92.00
10312;DHT22;5201;48.776;9.128;2022-08-01T03:02:59;21.70;92.10
10312;DHT22;5201;48.776;9.128;2022-08-01T03:05:27;21.60;92.10
10312;DHT22;5201;48.776;9.128;2022-08-01T03:07:55;21.50;92.70
10312;DHT22;5201;48.776;9.128;2022-08-01T03:10:22;21.50;92.30
10312;DHT22;5201;48.776;9.128;2022-08-01T03:12:50;21.60;92.50
10312;DHT22;5201;48.776;9.128;2022-08-01T03:15:17;21.60;92.50
10312;DHT22;5201;48.776;9.128;2022-08-01T03:17:45;21.50;92.60
10312;DHT22;5201;48.776;9.128;2022-08-01T03:20:14;21.50;92.60
10312;DHT22;5201;48.776;9.128;2022-08-01T03:22:42;21.50;93.00
10312;DHT22;5201;48.776;9.128;2022-08-01T03:25:10;21.60;93.30
10312;DHT22;5201;48.776;9.128;2022-08-01T03:27:39;21.60;93.00
10312;DHT22;5201;48.776;9.128;2022-08-01T03:30:06;21.60;93.20
10312;DHT22;5201;48.776;9.128;2022-08-01T03:32:32;21.60;93.30
10312;DHT22;5201;48.776;9.128;2022-08-01T03:34:58;21.60;93.10
10312;DHT22;5201;48.776;9.128;2022-08-01T03:37:24;21.60;92.90
10312;DHT22;5201;48.776;9.128;2022-08-01T03:39:57;21.60;93.10
10312;DHT22;5201;48.776;9.128;2022-08-01T03:42:31;21.50;93.10
10312;DHT22;5201;48.776;9.128;2022-08-01T03:45:02;21.50;93.50
10312;DHT22;5201;48.776;9.128;2022-08-01T03:47:33;21.40;93.20
10312;DHT22;5201;48.776;9.128;2022-08-01T03:50:02;21.50;93.40
10312;DHT22;5201;48.776;9.128;2022-08-01T03:52:29;21.50;93.40
10312;DHT22;5201;48.776;9.128;2022-08-01T03:54:59;21.50;93.20
10312;DHT22;5201;48.776;9.128;2022-08-01T03:57:28;21.50;93.40
10312;DHT22;5201;48.776;9.128;2022-08-01T03:59:56;21.40;93.30
10312;DHT22;5201;48.776;9.128;2022-08-01T04:02:22;21.30;94.30
10312;DHT22;5201;48.776;9.128;2022-08-01T04:04:48;21.40;93.60
10312;DHT22;5201;48.776;9.128;2022-08-01T04:07:30;21.40;93.60
10312;DHT22;5201;48.776;9.128;2022-08-01T04:09:56;21.40;93.90
10312;DHT22;5201;48.776;9.128;2022-08-01T04:12:22;21.40;93.90
10312;DHT22;5201;48.776;9.128;2022-08-01T04:14:48;21.40;93.60
10312;DHT22;5201;48.776;9.128;2022-08-01T04:17:17;21.40;93.90
10312;DHT22;5201;48.776;9.128;2022-08-01T04:19:43;21.40;94.30
10312;DHT22;5201;48.776;9.128;2022-08-01T04:22:10;21.50;94.20
10312;DHT22;5201;48.776;9.128;2022-08-01T04:24:37;21.60;93.90
10312;DHT22;5201;48.776;9.128;2022-08-01T04:27:06;21.60;94.00
10312;DHT22;5201;48.776;9.128;2022-08-01T04:29:33;21.60;94.00
10312;DHT22;5201;48.776;9.128;2022-08-01T04:32:01;21.60;94.30
10312;DHT22;5201;48.776;9.128;2022-08-01T04:34:29;21.70;94.10
10312;DHT22;5201;48.776;9.128;2022-08-01T04:36:56;21.70;95.00
10312;DHT22;5201;48.776;9.128;2022-08-01T04:39:28;21.60;94.20
10312;DHT22;5201;48.776;9.128;2022-08-01T04:42:00;21.60;94.30
10312;DHT22;5201;48.776;9.128;2022-08-01T04:44:29;21.60;94.40
10312;DHT22;5201;48.776;9.128;2022-08-01T04:47:02;21.50;94.70
10312;DHT22;5201;48.776;9.128;2022-08-01T04:49:31;21.50;95.00
10312;DHT22;5201;48.776;9.128;2022-08-01T04:51:57;21.60;94.60
10312;DHT22;5201;48.776;9.128;2022-08-01T04:54:29;21.60;94.70
10312;DHT22;5201;48.776;9.128;2022-08-01T04:56:56;21.50;94.80
10312;DHT22;5201;48.776;9.128;2022-08-01T04:59:31;21.40;94.90
10312;DHT22;5201;48.776;9.128;2022-08-01T05:02:15;21.50;94.90
10312;DHT22;5201;48.776;9.128;2022-08-01T05:04:42;21.40;95.10
10312;DHT22;5201;48.776;9.128;2022-08-01T05:07:08;21.40;95.70
10312;DHT22;5201;48.776;9.128;2022-08-01T05:09:35;21.40;95.20
10312;DHT22;5201;48.776;9.128;2022-08-01T05:12:04;21.40;95.30
10312;DHT22;5201;48.776;9.128;2022-08-01T05:14:31;21.40;95.40
10312;DHT22;5201;48.776;9.128;2022-08-01T05:17:07;21.50;95.50
10312;DHT22;5201;48.776;9.128;2022-08-01T05:19:34;21.60;95.90
10312;DHT22;5201;48.776;9.128;2022-08-01T05:22:00;21.80;95.60
10312;DHT22;5201;48.776;9.128;2022-08-01T05:24:30;21.90;95.40
10312;DHT22;5201;48.776;9.128;2022-08-01T05:26:56;22.10;95.40
10312;DHT22;5201;48.776;9.128;2022-08-01T05:29:23;22.30;95.30
10312;DHT22;5201;48.776;9.128;2022-08-01T05:31:48;22.30;94.80
10312;DHT22;5201;48.776;9.128;2022-08-01T05:34:14;22.40;94.80
10312;DHT22;5201;48.776;9.128;2022-08-01T05:36:40;22.40;95.20
10312;DHT22;5201;48.776;9.128;2022-08-01T05:39:05;22.40;95.00
10312;DHT22;5201;48.776;9.128;2022-08-01T05:41:31;22.40;95.40
10312;DHT22;5201;48.776;9.128;2022-08-01T05:43:56;22.40;95.20
10312;DHT22;5201;48.776;9.128;2022-08-01T05:46:22;22.40;95.20
10312;DHT22;5201;48.776;9.128;2022-08-01T05:48:48;22.40;95.40
10312;DHT22;5201;48.776;9.128;2022-08-01T05:51:13;22.30;95.70
10312;DHT22;5201;48.776;9.128;2022-08-01T05:53:39;22.30;95.80
10312;DHT22;5201;48.776;9.128;2022-08-01T05:56:05;22.30;96.00
10312;DHT22;5201;48.776;9.128;2022-08-01T05:58:31;22.40;95.60
10312;DHT22;5201;48.776;9.128;2022-08-01T06:00:57;22.40;95.80
10312;DHT22;5201;48.776;9.128;2022-08-01T06:03:23;22.50;95.50
10312;DHT22;5201;48.776;9.128;2022-08-01T06:05:49;22.70;95.90
10312;DHT22;5201;48.776;9.128;2022-08-01T06:08:14;22.80;95.90
10312;DHT22;5201;48.776;9.128;2022-08-01T06:10:40;22.90;95.40
10312;DHT22;5201;48.776;9.128;2022-08-01T06:13:05;22.90;95.40
10312;DHT22;5201;48.776;9.128;2022-08-01T06:15:32;23.00;95.20
10312;DHT22;5201;48.776;9.128;2022-08-01T06:17:58;23.00;95.00
10312;DHT22;5201;48.776;9.128;2022-08-01T06:20:24;23.30;95.20
10312;DHT22;5201;48.776;9.128;2022-08-01T06:22:49;23.70;94.60
10312;DHT22;5201;48.776;9.128;2022-08-01T06:25:17;24.20;94.10
10312;DHT22;5201;48.776;9.128;2022-08-01T06:27:43;24.70;93.90
10312;DHT22;5201;48.776;9.128;2022-08-01T06:30:09;25.10;92.60
10312;DHT22;5201;48.776;9.128;2022-08-01T06:32:35;25.30;92.90
10312;DHT22;5201;48.776;9.128;2022-08-01T06:35:01;25.50;92.50
10312;DHT22;5201;48.776;9.128;2022-08-01T06:37:30;25.40;92.40
10312;DHT22;5201;48.776;9.128;2022-08-01T06:40:03;25.50;92.60
10312;DHT22;5201;48.776;9.128;2022-08-01T06:42:28;25.90;92.90
10312;DHT22;5201;48.776;9.128;2022-08-01T06:44:57;26.20;92.00
10312;DHT22;5201;48.776;9.128;2022-08-01T06:47:23;26.50;91.60
10312;DHT22;5201;48.776;9.128;2022-08-01T06:49:48;26.60;91.30
10312;DHT22;5201;48.776;9.128;2022-08-01T06:52:14;26.60;91.00
10312;DHT22;5201;48.776;9.128;2022-08-01T06:54:39;26.80;91.10
10312;DHT22;5201;48.776;9.128;2022-08-01T06:57:05;26.90;91.00
10312;DHT22;5201;48.776;9.128;2022-08-01T06:59:31;27.30;90.80
10312;DHT22;5201;48.776;9.128;2022-08-01T07:01:57;27.50;91.20
10312;DHT22;5201;48.776;9.128;2022-08-01T07:04:23;27.90;88.90
10312;DHT22;5201;48.776;9.128;2022-08-01T07:06:48;28.30;90.20
10312;DHT22;5201;48.776;9.128;2022-08-01T07:09:14;28.70;87.30
10312;DHT22;5201;48.776;9.128;2022-08-01T07:11:39;28.90;87.10
10312;DHT22;5201;48.776;9.128;2022-08-01T07:14:05;29.10;87.40
10312;DHT22;5201;48.776;9.128;2022-08-01T07:16:30;29.50;85.60
10312;DHT22;5201;48.776;9.128;2022-08-01T07:18:56;29.70;84.80
10312;DHT22;5201;48.776;9.128;2022-08-01T07:21:22;29.90;84.80
10312;DHT22;5201;48.776;9.128;2022-08-01T07:23:47;30.20;83.20
10312;DHT22;5201;48.776;9.128;2022-08-01T07:26:13;29.60;83.20
10312;DHT22;5201;48.776;9.128;2022-08-01T07:28:38;29.50;84.30
10312;DHT22;5201;48.776;9.128;2022-08-01T07:31:04;29.50;84.80
10312;DHT22;5201;48.776;9.128;2022-08-01T07:33:30;29.70;83.80
10312;DHT22;5201;48.776;9.128;2022-08-01T07:35:56;29.80;84.00
10312;DHT22;5201;48.776;9.128;2022-08-01T07:38:21;29.70;83.60
10312;DHT22;5201;48.776;9.128;2022-08-01T07:40:47;29.40;83.40
10312;DHT22;5201;48.776;9.128;2022-08-01T07:43:13;28.90;84.60
10312;DHT22;5201;48.776;9.128;2022-08-01T07:45:40;28.50;85.20
10312;DHT22;5201;48.776;9.128;2022-08-01T07:48:06;28.40;86.20
10312;DHT22;5201;48.776;9.128;2022-08-01T07:50:32;28.00;86.90
10312;DHT22;5201;48.776;9.128;2022-08-01T07:52:59;27.80;86.90
10312;DHT22;5201;48.776;9.128;2022-08-01T07:55:25;27.30;87.80
10312;DHT22;5201;48.776;9.128;2022-08-01T07:57:52;27.50;88.90
10312;DHT22;5201;48.776;9.128;2022-08-01T08:00:18;27.60;86.90
10312;DHT22;5201;48.776;9.128;2022-08-01T08:02:44;27.90;88.00
10312;DHT22;5201;48.776;9.128;2022-08-01T08:05:11;28.10;86.10
10312;DHT22;5201;48.776;9.128;2022-08-01T08:07:37;27.80;87.20
10312;DHT22;5201;48.776;9.128;2022-08-01T08:10:04;27.80;87.40
10312;DHT22;5201;48.776;9.128;2022-08-01T08:12:31;27.90;88.20
10312;DHT22;5201;48.776;9.128;2022-08-01T08:14:57;28.00;86.40
10312;DHT22;5201;48.776;9.128;2022-08-01T08:17:25;27.70;87.90
10312;DHT22;5201;48.776;9.128;2022-08-01T08:19:51;27.60;87.80
10312;DHT22;5201;48.776;9.128;2022-08-01T08:22:16;27.50;89.20
10312;DHT22;5201;48.776;9.128;2022-08-01T08:24:42;27.90;88.90
10312;DHT22;5201;48.776;9.128;2022-08-01T08:27:08;28.60;87.70
10312;DHT22;5201;48.776;9.128;2022-08-01T08:29:34;29.20;85.70
10312;DHT22;5201;48.776;9.128;2022-08-01T08:32:01;29.30;84.20
10312;DHT22;5201;48.776;9.128;2022-08-01T08:34:28;29.20;85.30
10312;DHT22;5201;48.776;9.128;2022-08-01T08:36:54;28.70;85.00
10312;DHT22;5201;48.776;9.128;2022-08-01T08:39:21;28.40;85.90
10312;DHT22;5201;48.776;9.128;2022-08-01T08:41:47;28.50;87.30
10312;DHT22;5201;48.776;9.128;2022-08-01T08:44:13;28.60;86.60
10312;DHT22;5201;48.776;9.128;2022-08-01T08:46:47;28.60;85.60
10312;DHT22;5201;48.776;9.128;2022-08-01T08:49:17;28.40;85.50
10312;DHT22;5201;48.776;9.128;2022-08-01T08:51:47;28.40;86.60
10312;DHT22;5201;48.776;9.128;2022-08-01T08:54:13;28.10;87.20
10312;DHT22;5201;48.776;9.128;2022-08-01T08:56:40;27.80;87.40
10312;DHT22;5201;48.776;9.128;2022-08-01T08:59:07;27.50;89.20
10312;DHT22;5201;48.776;9.128;2022-08-01T09:01:33;27.30;89.40
10312;DHT22;5201;48.776;9.128;2022-08-01T09:04:01;27.20;89.70
10312;DHT22;5201;48.776;9.128;2022-08-01T09:06:26;27.10;89.80
10312;DHT22;5201;48.776;9.128;2022-08-01T09:08:53;27.00;90.40
10312;DHT22;5201;48.776;9.128;2022-08-01T09:11:19;27.30;90.10
10312;DHT22;5201;48.776;9.128;2022-08-01T09:16:30;27.60;88.90
10312;DHT22;5201;48.776;9.128;2022-08-01T09:19:10;27.40;89.40
10312;DHT22;5201;48.776;9.128;2022-08-01T09:21:37;27.30;89.20
10312;DHT22;5201;48.776;9.128;2022-08-01T09:24:03;27.30;90.20
10312;DHT22;5201;48.776;9.128;2022-08-01T09:26:33;27.20;89.80
10312;DHT22;5201;48.776;9.128;2022-08-01T09:29:04;27.10;90.10
10312;DHT22;5201;48.776;9.128;2022-08-01T09:31:40;27.00;90.60
10312;DHT22;5201;48.776;9.128;2022-08-01T09:34:06;27.40;90.20
10312;DHT22;5201;48.776;9.128;2022-08-01T09:36:56;27.80;88.70
10312;DHT22;5201;48.776;9.128;2022-08-01T09:39:27;27.90;88.20
10312;DHT22;5201;48.776;9.128;2022-08-01T09:41:54;28.00;88.70
10312;DHT22;5201;48.776;9.128;2022-08-01T09:44:40;27.90;89.10
10312;DHT22;5201;48.776;9.128;2022-08-01T09:47:06;27.80;89.00
10312;DHT22;5201;48.776;9.128;2022-08-01T09:49:33;27.80;88.60
10312;DHT22;5201;48.776;9.128;2022-08-01T09:52:20;27.90;89.40
10312;DHT22;5201;48.776;9.128;2022-08-01T09:55:07;27.80;89.00
10312;DHT22;5201;48.776;9.128;2022-08-01T09:57:33;27.80;88.80
10312;DHT22;5201;48.776;9.128;2022-08-01T10:00:00;27.80;89.40
10312;DHT22;5201;48.776;9.128;2022-08-01T10:02:37;27.80;88.70
10312;DHT22;5201;48.776;9.128;2022-08-01T10:05:05;28.00;88.80
10312;DHT22;5201;48.776;9.128;2022-08-01T10:07:31;27.90;88.10
10312;DHT22;5201;48.776;9.128;2022-08-01T10:10:12;27.70;88.50
10312;DHT22;5201;48.776;9.128;2022-08-01T10:12:39;27.60;89.70
10312;DHT22;5201;48.776;9.128;2022-08-01T10:15:05;27.60;89.10
10312;DHT22;5201;48.776;9.128;2022-08-01T10:17:32;27.90;88.20
10312;DHT22;5201;48.776;9.128;2022-08-01T10:20:01;27.40;88.20
10312;DHT22;5201;48.776;9.128;2022-08-01T10:22:27;27.30;90.20
10312;DHT22;5201;48.776;9.128;2022-08-01T10:24:56;28.00;88.50
10312;DHT22;5201;48.776;9.128;2022-08-01T10:27:23;28.20;87.80
10312;DHT22;5201;48.776;9.128;2022-08-01T10:29:55;28.30;87.50
10312;DHT22;5201;48.776;9.128;2022-08-01T10:32:22;28.40;85.80
10312;DHT22;5201;48.776;9.128;2022-08-01T10:34:52;28.90;86.20
10312;DHT22;5201;48.776;9.128;2022-08-01T10:37:18;29.00;84.60
10312;DHT22;5201;48.776;9.128;2022-08-01T10:39:44;29.20;84.20
10312;DHT22;5201;48.776;9.128;2022-08-01T10:42:10;29.10;85.10
10312;DHT22;5201;48.776;9.128;2022-08-01T10:44:37;28.90;84.90
10312;DHT22;5201;48.776;9.128;2022-08-01T10:47:10;28.80;85.40
10312;DHT22;5201;48.776;9.128;2022-08-01T10:52:18;27.80;87.00
10312;DHT22;5201;48.776;9.128;2022-08-01T10:54:44;27.60;87.50
10312;DHT22;5201;48.776;9.128;2022-08-01T10:57:10;27.80;88.10
10312;DHT22;5201;48.776;9.128;2022-08-01T10:59:51;28.30;88.20
10312;DHT22;5201;48.776;9.128;2022-08-01T11:02:35;29.00;86.50
10312;DHT22;5201;48.776;9.128;2022-08-01T11:05:26;29.20;85.60
10312;DHT22;5201;48.776;9.128;2022-08-01T11:07:54;29.60;83.80
10312;DHT22;5201;48.776;9.128;2022-08-01T11:13:00;30.00;82.70
10312;DHT22;5201;48.776;9.128;2022-08-01T11:15:28;29.60;83.50
10312;DHT22;5201;48.776;9.128;2022-08-01T11:17:55;29.30;82.80
10312;DHT22;5201;48.776;9.128;2022-08-01T11:20:29;28.90;84.10
10312;DHT22;5201;48.776;9.128;2022-08-01T11:25:28;28.70;84.20
10312;DHT22;5201;48.776;9.128;2022-08-01T11:30:44;29.50;84.10
10312;DHT22;5201;48.776;9.128;2022-08-01T11:33:10;29.90;82.80
10312;DHT22;5201;48.776;9.128;2022-08-01T11:35:37;29.80;82.20
10312;DHT22;5201;48.776;9.128;2022-08-01T11:38:25;30.00;82.30
10312;DHT22;5201;48.776;9.128;2022-08-01T11:41:21;30.20;81.50
10312;DHT22;5201;48.776;9.128;2022-08-01T11:44:02;29.70;81.90
10312;DHT22;5201;48.776;9.128;2022-08-01T11:47:04;29.30;82.70
10312;DHT22;5201;48.776;9.128;2022-08-01T11:52:17;28.90;83.90
10312;DHT22;5201;48.776;9.128;2022-08-01T11:54:50;28.70;83.50
10312;DHT22;5201;48.776;9.128;2022-08-01T11:57:24;28.70;84.40
10312;DHT22;5201;48.776;9.128;2022-08-01T11:59:55;28.70;83.50
10312;DHT22;5201;48.776;9.128;2022-08-01T12:02:22;28.60;83.50
10312;DHT22;5201;48.776;9.128;2022-08-01T12:05:02;28.70;83.40
10312;DHT22;5201;48.776;9.128;2022-08-01T12:07:30;28.90;83.30
10312;DHT22;5201;48.776;9.128;2022-08-01T12:10:00;28.90;82.90
10312;DHT22;5201;48.776;9.128;2022-08-01T12:12:27;29.10;82.90
10312;DHT22;5201;48.776;9.128;2022-08-01T12:14:54;29.00;82.60
10312;DHT22;5201;48.776;9.128;2022-08-01T12:17:48;28.80;82.00
10312;DHT22;5201;48.776;9.128;2022-08-01T12:20:19;28.50;82.00
10312;DHT22;5201;48.776;9.128;2022-08-01T12:22:44;28.30;82.60
10312;DHT22;5201;48.776;9.128;2022-08-01T12:25:15;28.30;82.80
10312;DHT22;5201;48.776;9.128;2022-08-01T12:27:43;28.20;83.80
10312;DHT22;5201;48.776;9.128;2022-08-01T12:30:14;28.10;84.10
10312;DHT22;5201;48.776;9.128;2022-08-01T12:32:41;28.00;84.70
10312;DHT22;5201;48.776;9.128;2022-08-01T12:35:10;28.20;84.40
10312;DHT22;5201;48.776;9.128;2022-08-01T12:37:44;28.40;84.30
10312;DHT22;5201;48.776;9.128;2022-08-01T12:42:40;28.50;84.40
10312;DHT22;5201;48.776;9.128;2022-08-01T12:45:14;28.40;84.10
10312;DHT22;5201;48.776;9.128;2022-08-01T12:47:41;28.40;84.30
10312;DHT22;5201;48.776;9.128;2022-08-01T12:50:14;28.40;83.00
10312;DHT22;5201;48.776;9.128;2022-08-01T12:52:40;28.30;82.80
10312;DHT22;5201;48.776;9.128;2022-08-01T12:57:41;28.00;84.40
10312;DHT22;5201;48.776;9.128;2022-08-01T13:00:23;28.00;84.40
10312;DHT22;5201;48.776;9.128;2022-08-01T13:02:59;28.00;83.90
10312;DHT22;5201;48.776;9.128;2022-08-01T13:05:26;28.10;84.20
10312;DHT22;5201;48.776;9.128;2022-08-01T13:07:52;28.20;84.10
10312;DHT22;5201;48.776;9.128;2022-08-01T13:10:27;28.20;84.30
10312;DHT22;5201;48.776;9.128;2022-08-01T13:12:55;28.10;84.10
10312;DHT22;5201;48.776;9.128;2022-08-01T13:15:22;28.10;85.50
10312;DHT22;5201;48.776;9.128;2022-08-01T13:17:50;28.00;85.50
10312;DHT22;5201;48.776;9.128;2022-08-01T13:22:48;27.90;84.70
10312;DHT22;5201;48.776;9.128;2022-08-01T13:25:15;27.90;85.20
10312;DHT22;5201;48.776;9.128;2022-08-01T13:27:41;27.90;86.40
10312;DHT22;5201;48.776;9.128;2022-08-01T13:30:19;28.00;84.60
10312;DHT22;5201;48.776;9.128;2022-08-01T13:32:59;28.10;85.70
10312;DHT22;5201;48.776;9.128;2022-08-01T13:35:25;28.20;85.30
10312;DHT22;5201;48.776;9.128;2022-08-01T13:37:51;28.20;84.30
10312;DHT22;5201;48.776;9.128;2022-08-01T13:40:25;28.10;84.70
10312;DHT22;5201;48.776;9.128;2022-08-01T13:42:51;28.10;85.30
10312;DHT22;5201;48.776;9.128;2022-08-01T13:45:17;28.20;84.10
10312;DHT22;5201;48.776;9.128;2022-08-01T13:47:43;28.30;84.90
10312;DHT22;5201;48.776;9.128;2022-08-01T13:50:09;28.40;84.00
10312;DHT22;5201;48.776;9.128;2022-08-01T13:52:34;28.30;83.60
10312;DHT22;5201;48.776;9.128;2022-08-01T13:55:00;28.10;83.70
10312;DHT22;5201;48.776;9.128;2022-08-01T13:57:27;28.20;83.90
10312;DHT22;5201;48.776;9.128;2022-08-01T13:59:53;28.20;85.00
10312;DHT22;5201;48.776;9.128;2022-08-01T14:02:18;28.30;84.80
10312;DHT22;5201;48.776;9.128;2022-08-01T14:04:44;28.30;84.90
10312;DHT22;5201;48.776;9.128;2022-08-01T14:07:10;28.40;85.30
10312;DHT22;5201;48.776;9.128;2022-08-01T14:09:36;28.40;84.40
10312;DHT22;5201;48.776;9.128;2022-08-01T14:12:02;28.50;84.00
10312;DHT22;5201;48.776;9.128;2022-08-01T14:14:28;28.50;84.10
10312;DHT22;5201;48.776;9.128;2022-08-01T14:16:53;28.50;83.80
10312;DHT22;5201;48.776;9.128;2022-08-01T14:19:19;28.50;84.00
10312;DHT22;5201;48.776;9.128;2022-08-01T14:21:45;28.50;83.20
10312;DHT22;5201;48.776;9.128;2022-08-01T14:24:10;28.40;83.90
10312;DHT22;5201;48.776;9.128;2022-08-01T14:26:36;28.40;83.80
10312;DHT22;5201;48.776;9.128;2022-08-01T14:29:01;28.40;84.30
10312;DHT22;5201;48.776;9.128;2022-08-01T14:31:27;28.50;83.90
10312;DHT22;5201;48.776;9.128;2022-08-01T14:33:54;28.60;84.00
10312;DHT22;5201;48.776;9.128;2022-08-01T14:36:20;28.70;83.70
10312;DHT22;5201;48.776;9.128;2022-08-01T14:38:46;28.70;83.70
10312;DHT22;5201;48.776;9.128;2022-08-01T14:41:11;28.90;83.20
10312;DHT22;5201;48.776;9.128;2022-08-01T14:43:37;28.90;82.00
10312;DHT22;5201;48.776;9.128;2022-08-01T14:46:03;28.90;83.50
10312;DHT22;5201;48.776;9.128;2022-08-01T14:48:29;28.90;82.90
10312;DHT22;5201;48.776;9.128;2022-08-01T14:50:55;28.90;83.20
10312;DHT22;5201;48.776;9.128;2022-08-01T14:53:20;28.80;83.20
10312;DHT22;5201;48.776;9.128;2022-08-01T14:55:46;28.80;83.30
10312;DHT22;5201;48.776;9.128;2022-08-01T14:58:12;28.80;83.30
10312;DHT22;5201;48.776;9.128;2022-08-01T15:00:37;28.80;83.20
10312;DHT22;5201;48.776;9.128;2022-08-01T15:03:03;28.80;82.90
10312;DHT22;5201;48.776;9.128;2022-08-01T15:05:28;28.60;82.80
10312;DHT22;5201;48.776;9.128;2022-08-01T15:07:55;28.50;82.40
10312;DHT22;5201;48.776;9.128;2022-08-01T15:10:21;28.50;82.80
10312;DHT22;5201;48.776;9.128;2022-08-01T15:12:48;28.40;84.00
10312;DHT22;5201;48.776;9.128;2022-08-01T15:15:14;28.40;83.40
10312;DHT22;5201;48.776;9.128;2022-08-01T15:17:39;28.40;83.20
10312;DHT22;5201;48.776;9.128;2022-08-01T15:20:06;28.40;83.10
10312;DHT22;5201;48.776;9.128;2022-08-01T15:22:32;28.20;82.50
10312;DHT22;5201;48.776;9.128;2022-08-01T15:24:59;28.20;83.10
10312;DHT22;5201;48.776;9.128;2022-08-01T15:27:26;28.20;83.00
10312;DHT22;5201;48.776;9.128;2022-08-01T15:29:53;28.20;83.10
10312;DHT22;5201;48.776;9.128;2022-08-01T15:32:19;28.20;83.90
10312;DHT22;5201;48.776;9.128;2022-08-01T15:34:44;28.20;82.10
10312;DHT22;5201;48.776;9.128;2022-08-01T15:37:10;28.30;81.60
10312;DHT22;5201;48.776;9.128;2022-08-01T15:39:37;28.30;82.10
10312;DHT22;5201;48.776;9.128;2022-08-01T15:42:06;28.30;81.90
10312;DHT22;5201;48.776;9.128;2022-08-01T15:44:32;28.20;81.80
10312;DHT22;5201;48.776;9.128;2022-08-01T15:46:59;28.30;82.20
10312;DHT22;5201;48.776;9.128;2022-08-01T15:49:26;28.40;81.80
10312;DHT22;5201;48.776;9.128;2022-08-01T15:51:51;28.30;81.40
10312;DHT22;5201;48.776;9.128;2022-08-01T15:54:17;28.20;81.70
10312;DHT22;5201;48.776;9.128;2022-08-01T15:56:43;28.20;81.00
10312;DHT22;5201;48.776;9.128;2022-08-01T15:59:09;28.20;82.10
10312;DHT22;5201;48.776;9.128;2022-08-01T16:01:35;28.30;81.20
10312;DHT22;5201;48.776;9.128;2022-08-01T16:04:01;28.20;80.80
10312;DHT22;5201;48.776;9.128;2022-08-01T16:06:27;28.10;81.70
10312;DHT22;5201;48.776;9.128;2022-08-01T16:08:53;28.00;81.70
10312;DHT22;5201;48.776;9.128;2022-08-01T16:11:18;28.00;82.20
10312;DHT22;5201;48.776;9.128;2022-08-01T16:13:44;28.10;82.20
10312;DHT22;5201;48.776;9.128;2022-08-01T16:16:11;28.10;82.10
10312;DHT22;5201;48.776;9.128;2022-08-01T16:18:37;28.00;82.00
10312;DHT22;5201;48.776;9.128;2022-08-01T16:21:03;28.00;82.30
10312;DHT22;5201;48.776;9.128;2022-08-01T16:23:29;28.00;82.60
10312;DHT22;5201;48.776;9.128;2022-08-01T16:25:54;28.00;82.70